createdAt,value
2022-12-12T00:02:42.133Z,11.63
2022-12-12T00:06:44.026Z,10.95
2022-12-12T00:10:45.832Z,12.93
2022-12-12T00:14:47.705Z,11.73
2022-12-12T00:18:49.639Z,8.45
2022-12-12T00:22:51.634Z,13.07
2022-12-12T00:26:53.379Z,10.75
2022-12-12T00:30:55.423Z,10.57
2022-12-12T00:34:57.216Z,6.43
2022-12-12T00:38:59.424Z,9.05
2022-12-12T00:43:01.357Z,6.78
2022-12-12T00:47:03.245Z,8.60
2022-12-12T00:51:09.352Z,7.38
2022-12-12T00:55:13.060Z,8.43
2022-12-12T00:59:15.133Z,7.25
2022-12-12T01:03:19.332Z,6.78
2022-12-12T01:07:21.584Z,8.63
2022-12-12T01:11:23.931Z,6.28
2022-12-12T01:15:26.448Z,8.85
2022-12-12T01:19:28.205Z,9.25
2022-12-12T01:23:30.100Z,13.45
2022-12-12T01:27:32.386Z,8.23
2022-12-12T01:31:34.364Z,11.20
2022-12-12T01:35:36.143Z,13.02
2022-12-12T01:39:37.875Z,13.00
2022-12-12T01:43:39.777Z,12.93
2022-12-12T01:47:41.532Z,10.25
2022-12-12T01:51:45.367Z,12.35
2022-12-12T01:55:49.464Z,14.30
2022-12-12T01:59:51.496Z,10.95
2022-12-12T02:03:53.709Z,13.65
2022-12-12T02:07:57.174Z,11.93
2022-12-12T02:11:59.361Z,12.90
2022-12-12T02:16:25.771Z,13.45
2022-12-12T02:20:45.780Z,12.57
2022-12-12T02:24:59.392Z,15.43
2022-12-12T02:29:25.745Z,11.35
2022-12-12T02:33:56.805Z,10.60
2022-12-12T02:38:25.897Z,11.68
2022-12-12T02:42:38.803Z,9.73
2022-12-12T02:47:07.606Z,10.90
2022-12-12T02:56:51.732Z,12.27
2022-12-12T03:01:24.634Z,13.07
2022-12-12T03:06:20.437Z,11.18
2022-12-12T03:10:54.595Z,9.55
2022-12-12T03:15:05.848Z,10.45
2022-12-12T03:19:13.746Z,9.75
2022-12-12T03:23:18.433Z,9.65
2022-12-12T03:27:27.489Z,10.57
2022-12-12T03:31:32.538Z,9.57
2022-12-12T03:35:39.895Z,10.55
2022-12-12T03:39:54.944Z,9.35
2022-12-12T03:44:16.515Z,7.90
2022-12-12T03:48:29.411Z,7.78
2022-12-12T03:52:42.056Z,13.55
2022-12-12T03:56:58.426Z,11.85
2022-12-12T04:01:04.709Z,11.38
2022-12-12T04:05:37.512Z,12.75
2022-12-12T04:09:58.059Z,14.38
2022-12-12T04:14:17.063Z,13.20
2022-12-12T04:18:37.066Z,14.15
2022-12-12T04:23:03.792Z,11.38
2022-12-12T04:27:16.054Z,16.77
2022-12-12T04:31:20.010Z,18.13
2022-12-12T04:35:33.524Z,12.15
2022-12-12T04:39:38.390Z,13.60
2022-12-12T04:43:43.399Z,10.25
2022-12-12T04:47:49.481Z,14.73
2022-12-12T04:51:55.939Z,11.70
2022-12-12T04:55:59.915Z,9.35
2022-12-12T05:00:01.923Z,8.35
2022-12-12T05:04:11.769Z,9.15
2022-12-12T05:08:21.973Z,9.05
2022-12-12T05:12:24.860Z,16.35
2022-12-12T05:16:40.538Z,11.48
2022-12-12T05:20:42.470Z,9.30
2022-12-12T05:24:44.219Z,9.45
2022-12-12T05:28:46.203Z,11.05
2022-12-12T05:32:48.627Z,7.43
2022-12-12T05:36:50.350Z,11.20
2022-12-12T05:40:52.099Z,8.23
2022-12-12T05:44:53.824Z,9.00
2022-12-12T05:48:55.836Z,7.22
2022-12-12T05:52:57.572Z,10.65
2022-12-12T05:56:59.285Z,10.45
2022-12-12T06:01:04.091Z,6.82
2022-12-12T06:05:06.162Z,11.23
2022-12-12T06:09:08.141Z,11.10
2022-12-12T06:13:09.968Z,12.43
2022-12-12T06:17:11.698Z,13.13
2022-12-12T06:21:13.473Z,11.55
2022-12-12T06:25:15.605Z,12.63
2022-12-12T06:29:17.586Z,12.45
2022-12-12T06:33:19.318Z,14.55
2022-12-12T06:37:21.228Z,19.95
2022-12-12T06:41:24.922Z,18.05
2022-12-12T06:45:26.730Z,26.67
2022-12-12T06:49:28.543Z,13.52
2022-12-12T06:53:30.316Z,15.25
2022-12-12T06:57:32.031Z,9.40
2022-12-12T07:01:33.854Z,8.25
2022-12-12T07:05:35.680Z,10.57
2022-12-12T07:09:37.412Z,10.77
2022-12-12T07:13:39.241Z,14.48
2022-12-12T07:17:40.998Z,16.80
2022-12-12T07:21:42.749Z,16.50
2022-12-12T07:25:45.039Z,17.90
2022-12-12T07:29:47.028Z,13.40
2022-12-12T07:33:48.950Z,12.90
2022-12-12T07:37:50.725Z,12.70
2022-12-12T07:41:52.484Z,16.73
2022-12-12T07:45:56.370Z,10.57
2022-12-12T07:49:58.097Z,12.77
2022-12-12T07:53:59.909Z,13.80
2022-12-12T07:58:01.635Z,10.75
2022-12-12T08:02:03.781Z,9.55
2022-12-12T08:06:07.014Z,12.88
2022-12-12T08:10:09.719Z,11.85
2022-12-12T08:14:13.281Z,13.27
2022-12-12T08:18:15.284Z,10.73
2022-12-12T08:22:17.398Z,10.75
2022-12-12T08:26:19.636Z,9.98
2022-12-12T08:30:21.990Z,12.18
2022-12-12T08:34:23.882Z,9.95
2022-12-12T08:38:25.907Z,11.07
2022-12-12T08:42:27.620Z,11.68
2022-12-12T08:46:29.832Z,12.38
2022-12-12T08:50:31.593Z,12.57
2022-12-12T08:54:33.325Z,12.95
2022-12-12T08:58:35.072Z,10.13
2022-12-12T09:02:37.306Z,12.48
2022-12-12T09:06:39.181Z,8.50
2022-12-12T09:10:42.306Z,11.52
2022-12-12T09:14:44.066Z,8.07
2022-12-12T09:18:49.084Z,11.25
2022-12-12T09:22:51.310Z,10.32
2022-12-12T09:26:53.050Z,10.88
2022-12-12T09:30:55.108Z,9.23
2022-12-12T09:34:56.903Z,8.15
2022-12-12T09:38:58.648Z,6.80
2022-12-12T09:43:01.018Z,6.13
2022-12-12T09:47:08.621Z,8.55
2022-12-12T09:51:11.476Z,7.10
2022-12-12T09:55:22.146Z,9.52
2022-12-12T09:59:54.587Z,7.75
2022-12-12T10:04:04.781Z,8.82
2022-12-12T10:08:21.609Z,7.38
2022-12-12T10:12:23.638Z,7.97
2022-12-12T10:16:26.547Z,9.13
2022-12-12T10:20:31.861Z,10.27
2022-12-12T10:24:39.608Z,7.07
2022-12-12T10:28:41.402Z,8.80
2022-12-12T10:32:46.018Z,10.93
2022-12-12T10:37:06.213Z,9.32
2022-12-12T10:41:17.318Z,7.22
2022-12-12T10:45:45.676Z,11.45
2022-12-12T10:49:47.792Z,9.23
2022-12-12T10:53:49.939Z,10.30
2022-12-12T10:58:04.204Z,9.43
2022-12-12T11:02:20.422Z,9.23
2022-12-12T11:06:43.945Z,10.27
2022-12-12T11:10:45.710Z,12.63
2022-12-12T11:15:02.181Z,12.18
2022-12-12T11:19:16.795Z,12.18
2022-12-12T11:23:21.181Z,11.90
2022-12-12T11:27:28.795Z,9.73
2022-12-12T11:31:34.242Z,11.50
2022-12-12T11:35:43.903Z,12.18
2022-12-12T11:39:51.912Z,14.25
2022-12-12T11:43:58.037Z,10.70
2022-12-12T11:47:59.779Z,9.37
2022-12-12T11:52:19.003Z,8.52
2022-12-12T11:56:38.896Z,10.95
2022-12-12T12:01:06.050Z,10.13
2022-12-12T12:05:38.069Z,10.77
2022-12-12T12:10:24.247Z,13.48
2022-12-12T12:14:32.338Z,11.50
2022-12-12T12:19:02.911Z,12.20
2022-12-12T12:23:14.086Z,10.88
2022-12-12T12:27:31.897Z,9.95
2022-12-12T12:32:12.075Z,11.35
2022-12-12T12:36:25.089Z,11.40
2022-12-12T12:40:46.152Z,10.45
2022-12-12T12:44:55.154Z,10.57
2022-12-12T12:49:05.029Z,10.05
2022-12-12T12:53:22.345Z,12.35
2022-12-12T12:57:33.214Z,11.43
2022-12-12T13:01:44.929Z,12.98
2022-12-12T13:06:01.432Z,11.88
2022-12-12T13:10:14.889Z,12.23
2022-12-12T13:14:23.300Z,11.65
2022-12-12T13:18:33.473Z,12.20
2022-12-12T13:22:46.118Z,10.30
2022-12-12T13:27:13.165Z,8.95
2022-12-12T13:31:30.344Z,10.95
2022-12-12T13:35:37.955Z,10.52
2022-12-12T13:39:39.721Z,9.77
2022-12-12T13:43:48.034Z,11.25
2022-12-12T13:47:50.902Z,10.23
2022-12-12T13:52:12.558Z,11.23
2022-12-12T13:56:45.795Z,9.05
2022-12-12T14:00:47.933Z,9.00
2022-12-12T14:05:10.585Z,10.40
2022-12-12T14:09:22.026Z,9.93
2022-12-12T14:13:23.851Z,8.35
2022-12-12T14:17:28.089Z,10.00
2022-12-12T14:21:45.654Z,12.90
2022-12-12T14:25:47.912Z,9.07
2022-12-12T14:29:49.624Z,9.40
2022-12-12T14:33:54.339Z,8.93
2022-12-12T14:38:33.412Z,7.72
2022-12-12T14:43:19.035Z,6.63
2022-12-12T14:47:08.370Z,9.55
2022-12-12T14:51:25.862Z,8.50
2022-12-12T14:55:31.999Z,7.32
2022-12-12T14:59:39.225Z,6.72
2022-12-12T15:03:49.543Z,8.10
2022-12-12T15:07:58.945Z,7.03
2022-12-12T15:12:09.874Z,5.25
2022-12-12T15:16:11.647Z,5.18
2022-12-12T15:20:25.642Z,5.40
2022-12-12T15:24:39.158Z,4.15
2022-12-12T15:28:44.826Z,5.00
2022-12-12T15:32:48.270Z,4.57
2022-12-12T15:36:50.060Z,3.58
2022-12-12T15:40:54.380Z,4.50
2022-12-12T15:44:56.736Z,5.32
2022-12-12T15:48:58.726Z,7.40
2022-12-12T15:53:23.529Z,5.20
2022-12-12T15:57:29.052Z,7.00
2022-12-12T16:01:31.030Z,5.40
2022-12-12T16:05:39.176Z,4.28
2022-12-12T16:09:57.693Z,4.53
2022-12-12T16:14:00.125Z,3.22
2022-12-12T16:18:13.800Z,5.32
2022-12-12T16:22:33.722Z,5.93
2022-12-12T16:26:35.444Z,7.78
2022-12-12T16:30:39.550Z,6.57
2022-12-12T16:34:42.045Z,3.42
2022-12-12T16:38:43.918Z,4.78
2022-12-12T16:43:01.144Z,6.13
2022-12-12T16:47:14.404Z,5.10
2022-12-12T16:51:20.607Z,5.00
2022-12-12T16:55:24.086Z,3.58
2022-12-12T16:59:25.836Z,5.03
2022-12-12T17:03:27.566Z,4.43
2022-12-12T17:07:29.328Z,4.05
2022-12-12T17:11:31.037Z,3.63
2022-12-12T17:15:33.155Z,10.73
2022-12-12T17:19:34.956Z,9.48
2022-12-12T17:23:36.870Z,9.00
2022-12-12T17:27:39.532Z,5.47
2022-12-12T17:31:41.377Z,5.88
2022-12-12T17:35:44.266Z,7.25
2022-12-12T17:39:46.082Z,7.25
2022-12-12T17:43:53.677Z,7.25
2022-12-12T17:47:58.131Z,5.15
2022-12-12T17:51:59.898Z,5.88
2022-12-12T17:56:07.805Z,7.47
2022-12-12T18:00:11.767Z,5.75
2022-12-12T18:04:16.543Z,8.13
2022-12-12T18:08:18.413Z,6.40
2022-12-12T18:12:20.194Z,5.70
2022-12-12T18:16:23.831Z,6.40
2022-12-12T18:20:30.988Z,7.18
2022-12-12T18:24:33.318Z,13.30
2022-12-12T18:28:35.681Z,11.27
2022-12-12T18:32:37.501Z,22.45
2022-12-12T18:36:39.645Z,19.00
2022-12-12T18:40:41.429Z,19.50
2022-12-12T18:44:43.149Z,19.63
2022-12-12T18:48:46.804Z,16.30
2022-12-12T18:52:48.623Z,13.60
2022-12-12T18:56:50.438Z,13.43
2022-12-12T19:00:52.307Z,13.52
2022-12-12T19:04:54.374Z,12.43
2022-12-12T19:08:57.524Z,18.25
2022-12-12T19:12:59.245Z,18.58
2022-12-12T19:17:00.996Z,18.52
2022-12-12T19:21:07.960Z,14.63
2022-12-12T19:25:09.829Z,10.95
2022-12-12T19:29:17.188Z,8.85
2022-12-12T19:33:19.019Z,8.88
2022-12-12T19:37:20.903Z,8.70
2022-12-12T19:41:23.385Z,10.57
2022-12-12T19:45:25.197Z,7.88
2022-12-12T19:49:27.389Z,10.60
2022-12-12T19:53:29.385Z,4.55
2022-12-12T19:57:31.183Z,7.40
2022-12-12T20:01:35.467Z,12.15
2022-12-12T20:05:37.297Z,12.82
2022-12-12T20:09:39.056Z,9.40
2022-12-12T20:13:41.615Z,9.85
2022-12-12T20:17:44.647Z,10.43
2022-12-12T20:22:04.072Z,8.65
2022-12-12T20:26:08.910Z,10.57
2022-12-12T20:30:12.577Z,7.80
2022-12-12T20:34:16.615Z,11.88
2022-12-12T20:38:18.368Z,16.95
2022-12-12T20:42:20.091Z,15.25
2022-12-12T20:46:24.765Z,13.32
2022-12-12T20:50:26.553Z,29.45
2022-12-12T20:54:29.526Z,11.52
2022-12-12T20:58:31.731Z,11.57
2022-12-12T21:02:33.803Z,9.55
2022-12-12T21:06:38.679Z,15.35
2022-12-12T21:10:40.420Z,20.60
2022-12-12T21:14:42.164Z,18.35
2022-12-12T21:18:43.905Z,18.17
2022-12-12T21:22:45.643Z,17.73
2022-12-12T21:26:47.440Z,17.33
2022-12-12T21:30:49.184Z,14.40
2022-12-12T21:34:51.026Z,17.55
2022-12-12T21:38:53.503Z,15.40
2022-12-12T21:42:55.310Z,12.18
2022-12-12T21:46:57.149Z,13.93
2022-12-12T21:51:05.992Z,16.77
2022-12-12T21:55:08.126Z,19.80
2022-12-12T21:59:11.699Z,18.58
2022-12-12T22:03:13.535Z,9.75
2022-12-12T22:07:15.346Z,11.40
2022-12-12T22:11:33.840Z,15.13
2022-12-12T22:15:40.766Z,21.90
2022-12-12T22:19:43.769Z,14.98
2022-12-12T22:23:47.471Z,11.60
2022-12-12T22:27:49.180Z,10.95
2022-12-12T22:31:52.423Z,16.67
2022-12-12T22:35:54.723Z,15.60
2022-12-12T22:39:56.435Z,10.13
2022-12-12T22:44:00.533Z,12.63
2022-12-12T22:48:02.245Z,13.15
2022-12-12T22:52:04.177Z,8.60
2022-12-12T22:56:05.911Z,7.95
2022-12-12T23:00:10.459Z,7.57
2022-12-12T23:04:13.848Z,12.10
2022-12-12T23:08:15.707Z,12.80
2022-12-12T23:12:17.525Z,10.77
2022-12-12T23:16:21.092Z,10.30
2022-12-12T23:20:22.889Z,10.07
2022-12-12T23:24:24.631Z,11.50
2022-12-12T23:28:26.395Z,7.45
2022-12-12T23:32:28.134Z,10.63
2022-12-12T23:36:30.451Z,13.40
2022-12-12T23:40:34.112Z,11.52
2022-12-12T23:44:35.839Z,12.10
2022-12-12T23:48:37.584Z,9.60
2022-12-12T23:52:39.313Z,10.88
2022-12-12T23:56:41.668Z,17.42
